Aeroporto :
LOGIN :

Iscrizione | Disclaimer

   EN    FR    IT 

 










Sommario :    VFR   VFR Marginale   IFR   IFR Intensivo   IFR Molto Intensivo
Visibilità : 
Base nubi : 
>= 8 km
>= 3000ft
5 / 8 km
1000 / 3000 ft
1500m / 5 km
500 / 1000 ft
800 / 1500m
200 / 500 ft
< 800m
< 200 ft
Simboli :   Temporali  Nebbia  Neve Forte  Precipitazioni Forti  Vento > 20 kt
SIGMETs :   Varie  Temporali  Ghiacco  Turbolenza  Onda orograficha  Ceneri Vulcaniche







- Altitudine del aeroporto : 7 ft
- Codice IATA : ESH
- Carte del aeroporto


EGKA - Shoreham

ULTIMO METAR :
  • 191750Z 29006KT 9999 FEW024 SCT030TCU 16/12 Q1017 RESHRA

METARs OBSOLETI :
  • 191720Z 26012G22KT 9999 SHRA FEW025 SCT030TCU 17/11 Q1017
  • 191650Z 24020G30KT 9999 VCSH FEW025 SCT030TCU 18/12 Q1017
  • 191620Z 23020G30KT 9999 VCSH FEW025TCU 19/13 Q1016
  • 191550Z 23021KT 9999 SCT030 19/13 Q1016
  • 191520Z 22020KT 9999 SCT030 19/14 Q1016

TAF AMD TAF EGKA
Valido dal 19 a 17 ore il 19 a 19 ore UTC


191757Z 1917/1919 26009KT 9999 SCT025
PROB40
TEMPO 1917/1919 25015G25KT 7000 SHRA
ATIS : +44 1273 467 372
Nessun NOTAM noto per questo aeroporto.



MetMap, La meteo Aeronautica in un colpo d'occhio ! - Copyright ORBIFLY Dicembre 2007 - Disclaimer

ORBIFLY MET'MAP TEAM :

Programmazione e sviluppo : Alexandra Zaïnal
Concezione e sviluppo : Baudouin d'Aumeries
Co-Programmazione e sviluppo : Marc-Olivier Méhu
Supporto tecnico e logistico : Manuel Goepfert
Aiuto per la traduzione : Arnaldo La Scala

Contatto : metmap@orbifly.com




FONTI E CREDITI :

   NOAA